sensor_id;sensor_type;location;lat;lon;timestamp;temperature;humidity
31725;DHT22;18306;40.960;14.836;2023-10-08T09:28:25;21.50;99.90
31725;DHT22;18306;40.960;14.836;2023-10-08T09:30:53;21.90;99.90
31725;DHT22;18306;40.960;14.836;2023-10-08T09:33:21;23.00;99.90
31725;DHT22;18306;40.960;14.836;2023-10-08T09:35:48;24.10;99.90
31725;DHT22;18306;40.960;14.836;2023-10-08T09:38:18;24.80;98.60
31725;DHT22;18306;40.960;14.836;2023-10-08T09:40:52;25.40;97.00
31725;DHT22;18306;40.960;14.836;2023-10-08T09:43:20;25.80;96.00
31725;DHT22;18306;40.960;14.836;2023-10-08T09:45:59;26.10;95.70
31725;DHT22;18306;40.960;14.836;2023-10-08T09:48:29;26.30;95.10
31725;DHT22;18306;40.960;14.836;2023-10-08T09:50:58;26.30;94.50
31725;DHT22;18306;40.960;14.836;2023-10-08T09:53:36;26.50;94.30
31725;DHT22;18306;40.960;14.836;2023-10-08T09:56:13;26.70;94.10
31725;DHT22;18306;40.960;14.836;2023-10-08T09:58:49;26.70;93.80
31725;DHT22;18306;40.960;14.836;2023-10-08T10:01:19;27.10;93.40
31725;DHT22;18306;40.960;14.836;2023-10-08T10:03:52;27.10;93.10
31725;DHT22;18306;40.960;14.836;2023-10-08T10:06:24;27.20;92.50
31725;DHT22;18306;40.960;14.836;2023-10-08T10:08:51;27.30;92.00
31725;DHT22;18306;40.960;14.836;2023-10-08T10:11:31;27.50;91.40
31725;DHT22;18306;40.960;14.836;2023-10-08T10:13:59;27.70;91.50
31725;DHT22;18306;40.960;14.836;2023-10-08T10:16:36;27.70;92.00
31725;DHT22;18306;40.960;14.836;2023-10-08T10:19:05;27.60;90.70
31725;DHT22;18306;40.960;14.836;2023-10-08T10:21:40;27.70;90.60
31725;DHT22;18306;40.960;14.836;2023-10-08T10:24:23;27.80;90.90
31725;DHT22;18306;40.960;14.836;2023-10-08T10:27:10;27.80;89.20
31725;DHT22;18306;40.960;14.836;2023-10-08T10:29:37;27.80;90.00
31725;DHT22;18306;40.960;14.836;2023-10-08T10:32:05;27.80;89.00
31725;DHT22;18306;40.960;14.836;2023-10-08T10:34:32;27.90;87.80
31725;DHT22;18306;40.960;14.836;2023-10-08T10:37:01;28.10;89.70
31725;DHT22;18306;40.960;14.836;2023-10-08T10:39:59;28.10;88.20
31725;DHT22;18306;40.960;14.836;2023-10-08T10:42:29;28.20;90.00
31725;DHT22;18306;40.960;14.836;2023-10-08T10:45:03;28.20;85.10
31725;DHT22;18306;40.960;14.836;2023-10-08T10:47:36;28.30;84.40
31725;DHT22;18306;40.960;14.836;2023-10-08T10:50:12;28.20;87.40
31725;DHT22;18306;40.960;14.836;2023-10-08T10:53:00;28.10;83.50
31725;DHT22;18306;40.960;14.836;2023-10-08T10:55:36;28.20;80.00
31725;DHT22;18306;40.960;14.836;2023-10-08T10:58:06;28.20;79.40
31725;DHT22;18306;40.960;14.836;2023-10-08T11:00:43;28.40;79.70
31725;DHT22;18306;40.960;14.836;2023-10-08T11:03:12;28.40;78.80
31725;DHT22;18306;40.960;14.836;2023-10-08T11:05:58;28.40;78.40
31725;DHT22;18306;40.960;14.836;2023-10-08T11:08:27;28.30;78.60
31725;DHT22;18306;40.960;14.836;2023-10-08T11:11:03;28.40;78.50
31725;DHT22;18306;40.960;14.836;2023-10-08T11:13:36;28.20;79.30
31725;DHT22;18306;40.960;14.836;2023-10-08T11:16:08;28.30;78.20
31725;DHT22;18306;40.960;14.836;2023-10-08T11:18:44;28.50;79.40
31725;DHT22;18306;40.960;14.836;2023-10-08T11:21:13;28.70;81.90
31725;DHT22;18306;40.960;14.836;2023-10-08T11:23:44;28.80;78.00
31725;DHT22;18306;40.960;14.836;2023-10-08T11:26:20;28.80;75.70
31725;DHT22;18306;40.960;14.836;2023-10-08T11:28:59;28.80;76.00
31725;DHT22;18306;40.960;14.836;2023-10-08T11:31:32;28.90;75.50
31725;DHT22;18306;40.960;14.836;2023-10-08T11:34:03;28.90;78.10
31725;DHT22;18306;40.960;14.836;2023-10-08T11:36:37;28.90;75.40
31725;DHT22;18306;40.960;14.836;2023-10-08T11:39:20;28.90;76.90
31725;DHT22;18306;40.960;14.836;2023-10-08T11:42:02;29.10;75.50
31725;DHT22;18306;40.960;14.836;2023-10-08T11:44:37;29.20;75.80
31725;DHT22;18306;40.960;14.836;2023-10-08T11:47:07;29.10;74.40
31725;DHT22;18306;40.960;14.836;2023-10-08T11:49:51;29.10;76.90
31725;DHT22;18306;40.960;14.836;2023-10-08T11:52:30;29.30;77.30
31725;DHT22;18306;40.960;14.836;2023-10-08T11:54:59;29.20;75.60
31725;DHT22;18306;40.960;14.836;2023-10-08T11:57:26;29.30;75.10
31725;DHT22;18306;40.960;14.836;2023-10-08T11:59:53;29.30;75.10
31725;DHT22;18306;40.960;14.836;2023-10-08T12:02:21;29.50;74.40
31725;DHT22;18306;40.960;14.836;2023-10-08T12:04:48;29.50;75.30
31725;DHT22;18306;40.960;14.836;2023-10-08T12:07:17;29.50;74.90
31725;DHT22;18306;40.960;14.836;2023-10-08T12:09:47;29.40;75.10
31725;DHT22;18306;40.960;14.836;2023-10-08T12:12:19;29.50;74.70
31725;DHT22;18306;40.960;14.836;2023-10-08T12:14:50;29.40;74.20
31725;DHT22;18306;40.960;14.836;2023-10-08T12:17:21;29.40;73.80
31725;DHT22;18306;40.960;14.836;2023-10-08T12:20:07;29.30;74.70
31725;DHT22;18306;40.960;14.836;2023-10-08T12:22:50;29.30;74.70
31725;DHT22;18306;40.960;14.836;2023-10-08T12:25:17;29.30;74.30
31725;DHT22;18306;40.960;14.836;2023-10-08T12:27:45;29.20;74.20
31725;DHT22;18306;40.960;14.836;2023-10-08T12:30:13;29.30;74.80
31725;DHT22;18306;40.960;14.836;2023-10-08T12:32:41;29.50;73.90
31725;DHT22;18306;40.960;14.836;2023-10-08T12:35:09;29.50;73.90
31725;DHT22;18306;40.960;14.836;2023-10-08T12:37:40;29.70;75.20
31725;DHT22;18306;40.960;14.836;2023-10-08T12:40:10;29.70;75.10
31725;DHT22;18306;40.960;14.836;2023-10-08T12:42:53;29.80;74.40
31725;DHT22;18306;40.960;14.836;2023-10-08T12:45:23;29.70;73.20
31725;DHT22;18306;40.960;14.836;2023-10-08T12:47:53;29.60;74.20
31725;DHT22;18306;40.960;14.836;2023-10-08T12:50:21;29.70;74.20
31725;DHT22;18306;40.960;14.836;2023-10-08T12:52:56;29.90;72.80
31725;DHT22;18306;40.960;14.836;2023-10-08T12:55:23;29.90;73.50
31725;DHT22;18306;40.960;14.836;2023-10-08T12:57:52;29.90;72.10
31725;DHT22;18306;40.960;14.836;2023-10-08T13:00:23;29.80;70.10
31725;DHT22;18306;40.960;14.836;2023-10-08T13:02:51;30.10;73.80
31725;DHT22;18306;40.960;14.836;2023-10-08T13:05:23;30.20;72.80
31725;DHT22;18306;40.960;14.836;2023-10-08T13:07:59;30.00;72.30
31725;DHT22;18306;40.960;14.836;2023-10-08T13:10:36;30.10;71.20
31725;DHT22;18306;40.960;14.836;2023-10-08T13:13:21;30.10;70.90
31725;DHT22;18306;40.960;14.836;2023-10-08T13:15:53;30.00;71.10
31725;DHT22;18306;40.960;14.836;2023-10-08T13:18:23;30.10;72.90
31725;DHT22;18306;40.960;14.836;2023-10-08T13:20:55;30.00;73.20
31725;DHT22;18306;40.960;14.836;2023-10-08T13:23:28;29.80;72.00
31725;DHT22;18306;40.960;14.836;2023-10-08T13:25:56;30.00;71.70
31725;DHT22;18306;40.960;14.836;2023-10-08T13:28:26;30.00;71.50
31725;DHT22;18306;40.960;14.836;2023-10-08T13:30:53;30.00;70.50
31725;DHT22;18306;40.960;14.836;2023-10-08T13:33:24;30.00;70.40
31725;DHT22;18306;40.960;14.836;2023-10-08T13:35:57;30.10;71.00
31725;DHT22;18306;40.960;14.836;2023-10-08T13:38:24;30.00;71.00
31725;DHT22;18306;40.960;14.836;2023-10-08T13:40:51;29.90;71.60
31725;DHT22;18306;40.960;14.836;2023-10-08T13:43:33;30.00;71.60
31725;DHT22;18306;40.960;14.836;2023-10-08T13:46:04;30.00;72.00
31725;DHT22;18306;40.960;14.836;2023-10-08T13:48:35;29.80;71.10
31725;DHT22;18306;40.960;14.836;2023-10-08T13:51:04;29.90;70.80
31725;DHT22;18306;40.960;14.836;2023-10-08T13:53:38;30.10;71.80
31725;DHT22;18306;40.960;14.836;2023-10-08T13:56:06;30.10;72.10
31725;DHT22;18306;40.960;14.836;2023-10-08T13:58:34;30.10;74.20
31725;DHT22;18306;40.960;14.836;2023-10-08T14:01:02;30.00;72.90
31725;DHT22;18306;40.960;14.836;2023-10-08T14:04:13;30.00;73.30
31725;DHT22;18306;40.960;14.836;2023-10-08T14:06:50;30.10;71.60
31725;DHT22;18306;40.960;14.836;2023-10-08T14:09:22;30.20;71.80
31725;DHT22;18306;40.960;14.836;2023-10-08T14:11:57;30.20;71.00
31725;DHT22;18306;40.960;14.836;2023-10-08T14:14:26;30.00;72.90
31725;DHT22;18306;40.960;14.836;2023-10-08T14:16:57;30.10;73.30
31725;DHT22;18306;40.960;14.836;2023-10-08T14:19:35;30.10;73.00
31725;DHT22;18306;40.960;14.836;2023-10-08T14:22:26;29.90;72.30
31725;DHT22;18306;40.960;14.836;2023-10-08T14:24:53;30.10;73.30
31725;DHT22;18306;40.960;14.836;2023-10-08T14:27:27;30.00;74.50
31725;DHT22;18306;40.960;14.836;2023-10-08T14:30:10;30.00;75.90
31725;DHT22;18306;40.960;14.836;2023-10-08T14:32:47;29.90;74.60
31725;DHT22;18306;40.960;14.836;2023-10-08T14:35:15;29.90;76.40
31725;DHT22;18306;40.960;14.836;2023-10-08T14:38:00;30.00;76.20
31725;DHT22;18306;40.960;14.836;2023-10-08T14:40:48;29.70;76.10
31725;DHT22;18306;40.960;14.836;2023-10-08T14:43:53;29.80;76.40
31725;DHT22;18306;40.960;14.836;2023-10-08T14:46:20;29.80;75.70
31725;DHT22;18306;40.960;14.836;2023-10-08T14:48:48;29.90;76.00
31725;DHT22;18306;40.960;14.836;2023-10-08T14:51:16;30.00;76.20
31725;DHT22;18306;40.960;14.836;2023-10-08T14:53:46;30.10;76.10
31725;DHT22;18306;40.960;14.836;2023-10-08T14:56:24;30.00;74.00
31725;DHT22;18306;40.960;14.836;2023-10-08T14:58:55;30.20;74.10
31725;DHT22;18306;40.960;14.836;2023-10-08T15:01:23;30.30;74.20
31725;DHT22;18306;40.960;14.836;2023-10-08T15:03:53;30.20;73.80
31725;DHT22;18306;40.960;14.836;2023-10-08T15:06:20;30.10;71.60
31725;DHT22;18306;40.960;14.836;2023-10-08T15:12:29;30.10;71.50
31725;DHT22;18306;40.960;14.836;2023-10-08T15:15:01;30.20;71.10
31725;DHT22;18306;40.960;14.836;2023-10-08T15:17:43;30.20;71.40
31725;DHT22;18306;40.960;14.836;2023-10-08T15:20:14;30.10;72.00
31725;DHT22;18306;40.960;14.836;2023-10-08T15:22:44;30.00;72.90
31725;DHT22;18306;40.960;14.836;2023-10-08T15:25:12;30.10;73.40
31725;DHT22;18306;40.960;14.836;2023-10-08T15:27:42;30.20;74.40
31725;DHT22;18306;40.960;14.836;2023-10-08T15:30:12;30.30;75.30
31725;DHT22;18306;40.960;14.836;2023-10-08T15:32:43;30.30;76.90
31725;DHT22;18306;40.960;14.836;2023-10-08T15:35:12;30.30;78.00
31725;DHT22;18306;40.960;14.836;2023-10-08T15:37:44;30.30;79.10
31725;DHT22;18306;40.960;14.836;2023-10-08T15:40:13;30.20;79.60
31725;DHT22;18306;40.960;14.836;2023-10-08T15:42:51;30.10;80.70
31725;DHT22;18306;40.960;14.836;2023-10-08T15:45:20;30.00;81.60
31725;DHT22;18306;40.960;14.836;2023-10-08T15:47:50;30.00;82.20
31725;DHT22;18306;40.960;14.836;2023-10-08T15:50:19;29.90;82.70
31725;DHT22;18306;40.960;14.836;2023-10-08T15:52:47;29.80;83.40
31725;DHT22;18306;40.960;14.836;2023-10-08T15:55:14;29.70;84.00
31725;DHT22;18306;40.960;14.836;2023-10-08T15:57:41;29.70;83.30
31725;DHT22;18306;40.960;14.836;2023-10-08T16:00:09;29.60;82.00
31725;DHT22;18306;40.960;14.836;2023-10-08T16:02:37;29.50;82.70
31725;DHT22;18306;40.960;14.836;2023-10-08T16:05:09;29.50;83.00
31725;DHT22;18306;40.960;14.836;2023-10-08T16:07:37;29.40;83.80
31725;DHT22;18306;40.960;14.836;2023-10-08T16:10:04;29.30;84.30
31725;DHT22;18306;40.960;14.836;2023-10-08T16:12:31;29.20;83.60
31725;DHT22;18306;40.960;14.836;2023-10-08T16:14:59;29.10;84.60
31725;DHT22;18306;40.960;14.836;2023-10-08T16:17:27;29.10;84.90
31725;DHT22;18306;40.960;14.836;2023-10-08T16:20:00;29.00;85.20
31725;DHT22;18306;40.960;14.836;2023-10-08T16:22:46;28.90;84.10
31725;DHT22;18306;40.960;14.836;2023-10-08T16:25:18;28.90;85.70
31725;DHT22;18306;40.960;14.836;2023-10-08T16:28:03;28.70;84.80
31725;DHT22;18306;40.960;14.836;2023-10-08T16:30:38;28.70;84.40
31725;DHT22;18306;40.960;14.836;2023-10-08T16:33:10;28.60;84.80
31725;DHT22;18306;40.960;14.836;2023-10-08T16:35:40;28.60;84.60
31725;DHT22;18306;40.960;14.836;2023-10-08T16:38:13;28.40;84.90
31725;DHT22;18306;40.960;14.836;2023-10-08T16:40:42;28.40;84.90
31725;DHT22;18306;40.960;14.836;2023-10-08T16:43:10;28.30;84.80
31725;DHT22;18306;40.960;14.836;2023-10-08T16:45:50;28.20;85.00
31725;DHT22;18306;40.960;14.836;2023-10-08T16:48:20;28.00;86.20
31725;DHT22;18306;40.960;14.836;2023-10-08T16:50:48;27.90;86.40
31725;DHT22;18306;40.960;14.836;2023-10-08T16:53:16;27.80;86.20
31725;DHT22;18306;40.960;14.836;2023-10-08T16:55:54;27.70;85.70
31725;DHT22;18306;40.960;14.836;2023-10-08T16:58:26;27.70;85.40
31725;DHT22;18306;40.960;14.836;2023-10-08T17:00:53;27.40;85.50
31725;DHT22;18306;40.960;14.836;2023-10-08T17:03:20;27.30;85.70
31725;DHT22;18306;40.960;14.836;2023-10-08T17:05:48;26.90;86.90
31725;DHT22;18306;40.960;14.836;2023-10-08T17:08:18;26.90;88.10
31725;DHT22;18306;40.960;14.836;2023-10-08T17:11:00;27.00;88.40
31725;DHT22;18306;40.960;14.836;2023-10-08T17:13:27;27.00;88.60
31725;DHT22;18306;40.960;14.836;2023-10-08T17:15:56;27.00;88.80
31725;DHT22;18306;40.960;14.836;2023-10-08T17:18:24;27.00;89.50
31725;DHT22;18306;40.960;14.836;2023-10-08T17:20:56;27.00;88.90
31725;DHT22;18306;40.960;14.836;2023-10-08T17:23:23;27.00;88.40
31725;DHT22;18306;40.960;14.836;2023-10-08T17:25:50;26.90;88.20
31725;DHT22;18306;40.960;14.836;2023-10-08T17:28:23;26.90;88.30
31725;DHT22;18306;40.960;14.836;2023-10-08T17:30:53;26.90;88.00
31725;DHT22;18306;40.960;14.836;2023-10-08T17:33:20;26.80;88.00
31725;DHT22;18306;40.960;14.836;2023-10-08T17:35:50;26.80;88.00
31725;DHT22;18306;40.960;14.836;2023-10-08T17:38:25;26.70;86.60
31725;DHT22;18306;40.960;14.836;2023-10-08T17:40:53;26.60;87.60
31725;DHT22;18306;40.960;14.836;2023-10-08T17:43:21;26.50;88.40
31725;DHT22;18306;40.960;14.836;2023-10-08T17:45:48;26.50;89.30
31725;DHT22;18306;40.960;14.836;2023-10-08T17:48:15;26.40;90.00
31725;DHT22;18306;40.960;14.836;2023-10-08T17:50:42;26.30;89.80
31725;DHT22;18306;40.960;14.836;2023-10-08T17:53:12;26.30;90.10
31725;DHT22;18306;40.960;14.836;2023-10-08T17:55:41;26.20;90.20
31725;DHT22;18306;40.960;14.836;2023-10-08T17:58:09;26.20;90.10
31725;DHT22;18306;40.960;14.836;2023-10-08T18:00:36;26.10;90.20
31725;DHT22;18306;40.960;14.836;2023-10-08T18:03:07;26.00;90.30
31725;DHT22;18306;40.960;14.836;2023-10-08T18:05:35;25.90;90.50
31725;DHT22;18306;40.960;14.836;2023-10-08T18:08:04;25.90;90.60
31725;DHT22;18306;40.960;14.836;2023-10-08T18:10:33;25.90;90.90
31725;DHT22;18306;40.960;14.836;2023-10-08T18:13:02;25.80;91.10
31725;DHT22;18306;40.960;14.836;2023-10-08T18:15:29;25.80;91.10
31725;DHT22;18306;40.960;14.836;2023-10-08T18:17:57;25.70;91.30
31725;DHT22;18306;40.960;14.836;2023-10-08T18:20:25;25.60;91.50
31725;DHT22;18306;40.960;14.836;2023-10-08T18:23:02;25.60;91.50
31725;DHT22;18306;40.960;14.836;2023-10-08T18:25:29;25.50;91.70
31725;DHT22;18306;40.960;14.836;2023-10-08T18:27:58;25.50;91.90
31725;DHT22;18306;40.960;14.836;2023-10-08T18:30:25;25.40;92.20
31725;DHT22;18306;40.960;14.836;2023-10-08T18:32:54;25.30;92.00
31725;DHT22;18306;40.960;14.836;2023-10-08T18:35:21;25.30;92.20
31725;DHT22;18306;40.960;14.836;2023-10-08T18:37:56;25.20;92.30
31725;DHT22;18306;40.960;14.836;2023-10-08T18:40:41;25.10;92.50
31725;DHT22;18306;40.960;14.836;2023-10-08T18:43:09;25.00;92.80
31725;DHT22;18306;40.960;14.836;2023-10-08T18:45:45;24.90;92.80
31725;DHT22;18306;40.960;14.836;2023-10-08T18:48:13;24.80;92.90
31725;DHT22;18306;40.960;14.836;2023-10-08T18:50:41;24.80;93.00
31725;DHT22;18306;40.960;14.836;2023-10-08T18:53:19;24.70;93.10
31725;DHT22;18306;40.960;14.836;2023-10-08T18:55:46;24.70;93.30
31725;DHT22;18306;40.960;14.836;2023-10-08T18:58:17;24.60;93.50
31725;DHT22;18306;40.960;14.836;2023-10-08T19:00:47;24.60;93.60
31725;DHT22;18306;40.960;14.836;2023-10-08T19:03:16;24.60;93.80
31725;DHT22;18306;40.960;14.836;2023-10-08T19:05:48;24.50;93.90
31725;DHT22;18306;40.960;14.836;2023-10-08T19:08:25;24.40;93.90
31725;DHT22;18306;40.960;14.836;2023-10-08T19:11:17;24.40;94.10
31725;DHT22;18306;40.960;14.836;2023-10-08T19:13:45;24.30;94.30
31725;DHT22;18306;40.960;14.836;2023-10-08T19:16:13;24.20;94.30
31725;DHT22;18306;40.960;14.836;2023-10-08T19:18:42;24.20;94.40
31725;DHT22;18306;40.960;14.836;2023-10-08T19:21:18;24.10;94.50
31725;DHT22;18306;40.960;14.836;2023-10-08T19:23:48;24.10;94.60
31725;DHT22;18306;40.960;14.836;2023-10-08T19:26:15;24.00;94.70
31725;DHT22;18306;40.960;14.836;2023-10-08T19:28:45;24.00;94.80
31725;DHT22;18306;40.960;14.836;2023-10-08T19:31:12;24.00;94.80
31725;DHT22;18306;40.960;14.836;2023-10-08T19:33:41;23.90;94.70
31725;DHT22;18306;40.960;14.836;2023-10-08T19:36:11;23.80;94.80
31725;DHT22;18306;40.960;14.836;2023-10-08T19:38:41;23.80;95.00
31725;DHT22;18306;40.960;14.836;2023-10-08T19:41:20;23.80;95.00
31725;DHT22;18306;40.960;14.836;2023-10-08T19:43:54;23.70;95.00
31725;DHT22;18306;40.960;14.836;2023-10-08T19:46:25;23.60;95.10
31725;DHT22;18306;40.960;14.836;2023-10-08T19:48:59;23.40;95.30
31725;DHT22;18306;40.960;14.836;2023-10-08T19:51:36;23.40;95.50
31725;DHT22;18306;40.960;14.836;2023-10-08T19:54:04;23.30;95.60
31725;DHT22;18306;40.960;14.836;2023-10-08T19:56:37;23.20;95.60
31725;DHT22;18306;40.960;14.836;2023-10-08T19:59:06;23.20;95.70
31725;DHT22;18306;40.960;14.836;2023-10-08T20:01:38;23.20;95.70
31725;DHT22;18306;40.960;14.836;2023-10-08T20:04:06;23.10;95.80
31725;DHT22;18306;40.960;14.836;2023-10-08T20:06:34;23.10;95.70
31725;DHT22;18306;40.960;14.836;2023-10-08T20:09:05;23.10;95.80
31725;DHT22;18306;40.960;14.836;2023-10-08T20:11:33;23.00;95.90
31725;DHT22;18306;40.960;14.836;2023-10-08T20:14:01;23.00;95.90
31725;DHT22;18306;40.960;14.836;2023-10-08T20:16:29;22.90;96.00
31725;DHT22;18306;40.960;14.836;2023-10-08T20:18:56;22.90;96.20
31725;DHT22;18306;40.960;14.836;2023-10-08T20:21:23;22.90;95.90
31725;DHT22;18306;40.960;14.836;2023-10-08T20:23:52;22.80;96.10
31725;DHT22;18306;40.960;14.836;2023-10-08T20:26:19;22.80;96.20
31725;DHT22;18306;40.960;14.836;2023-10-08T20:28:53;22.80;96.30
31725;DHT22;18306;40.960;14.836;2023-10-08T20:31:24;22.80;96.30
31725;DHT22;18306;40.960;14.836;2023-10-08T20:33:51;22.80;96.30
31725;DHT22;18306;40.960;14.836;2023-10-08T20:36:19;22.70;96.40
31725;DHT22;18306;40.960;14.836;2023-10-08T20:38:54;22.70;96.40
31725;DHT22;18306;40.960;14.836;2023-10-08T20:41:22;22.70;96.50
31725;DHT22;18306;40.960;14.836;2023-10-08T20:43:49;22.70;96.50
31725;DHT22;18306;40.960;14.836;2023-10-08T20:46:18;22.70;96.50
31725;DHT22;18306;40.960;14.836;2023-10-08T20:48:45;22.80;96.50
31725;DHT22;18306;40.960;14.836;2023-10-08T20:51:14;22.80;96.50
31725;DHT22;18306;40.960;14.836;2023-10-08T20:53:44;22.70;96.30
31725;DHT22;18306;40.960;14.836;2023-10-08T20:56:12;22.60;96.50
31725;DHT22;18306;40.960;14.836;2023-10-08T20:58:39;22.50;96.50
31725;DHT22;18306;40.960;14.836;2023-10-08T21:01:06;22.50;96.70
31725;DHT22;18306;40.960;14.836;2023-10-08T21:03:33;22.40;96.80
31725;DHT22;18306;40.960;14.836;2023-10-08T21:06:00;22.40;96.90
31725;DHT22;18306;40.960;14.836;2023-10-08T21:08:28;22.30;97.10
31725;DHT22;18306;40.960;14.836;2023-10-08T21:10:56;22.20;97.20
31725;DHT22;18306;40.960;14.836;2023-10-08T21:13:23;22.20;97.30
31725;DHT22;18306;40.960;14.836;2023-10-08T21:15:50;22.10;97.20
31725;DHT22;18306;40.960;14.836;2023-10-08T21:18:18;22.10;97.40
31725;DHT22;18306;40.960;14.836;2023-10-08T21:20:47;22.00;97.40
31725;DHT22;18306;40.960;14.836;2023-10-08T21:23:15;22.10;97.40
31725;DHT22;18306;40.960;14.836;2023-10-08T21:25:42;22.10;97.30
31725;DHT22;18306;40.960;14.836;2023-10-08T21:28:11;22.00;97.40
31725;DHT22;18306;40.960;14.836;2023-10-08T21:30:38;22.00;97.50
31725;DHT22;18306;40.960;14.836;2023-10-08T21:33:05;21.90;97.50
31725;DHT22;18306;40.960;14.836;2023-10-08T21:35:35;21.80;97.70
31725;DHT22;18306;40.960;14.836;2023-10-08T21:38:02;21.80;97.70
31725;DHT22;18306;40.960;14.836;2023-10-08T21:40:29;21.90;97.70
31725;DHT22;18306;40.960;14.836;2023-10-08T21:42:57;21.80;97.60
31725;DHT22;18306;40.960;14.836;2023-10-08T21:45:25;21.80;97.40
31725;DHT22;18306;40.960;14.836;2023-10-08T21:47:53;21.70;97.60
31725;DHT22;18306;40.960;14.836;2023-10-08T21:50:21;21.70;97.80
31725;DHT22;18306;40.960;14.836;2023-10-08T21:52:51;21.60;97.80
31725;DHT22;18306;40.960;14.836;2023-10-08T21:55:19;21.60;98.00
31725;DHT22;18306;40.960;14.836;2023-10-08T21:57:48;21.60;98.00
31725;DHT22;18306;40.960;14.836;2023-10-08T22:00:19;21.50;98.00
31725;DHT22;18306;40.960;14.836;2023-10-08T22:02:51;21.50;98.00
31725;DHT22;18306;40.960;14.836;2023-10-08T22:05:23;21.40;98.00
31725;DHT22;18306;40.960;14.836;2023-10-08T22:07:51;21.40;98.30
31725;DHT22;18306;40.960;14.836;2023-10-08T22:10:18;21.40;98.40
31725;DHT22;18306;40.960;14.836;2023-10-08T22:12:49;21.40;98.20
31725;DHT22;18306;40.960;14.836;2023-10-08T22:15:16;21.40;98.10
31725;DHT22;18306;40.960;14.836;2023-10-08T22:17:47;21.40;97.90
31725;DHT22;18306;40.960;14.836;2023-10-08T22:20:15;21.40;97.80
31725;DHT22;18306;40.960;14.836;2023-10-08T22:23:06;21.40;97.80
31725;DHT22;18306;40.960;14.836;2023-10-08T22:25:35;21.40;97.90
31725;DHT22;18306;40.960;14.836;2023-10-08T22:28:05;21.30;97.90
31725;DHT22;18306;40.960;14.836;2023-10-08T22:30:44;21.30;98.00
31725;DHT22;18306;40.960;14.836;2023-10-08T22:33:20;21.20;98.20
31725;DHT22;18306;40.960;14.836;2023-10-08T22:35:54;21.20;98.30
31725;DHT22;18306;40.960;14.836;2023-10-08T22:38:21;21.20;98.30
31725;DHT22;18306;40.960;14.836;2023-10-08T22:40:49;21.20;98.50
31725;DHT22;18306;40.960;14.836;2023-10-08T22:43:22;21.20;98.60
31725;DHT22;18306;40.960;14.836;2023-10-08T22:45:50;21.30;98.60
31725;DHT22;18306;40.960;14.836;2023-10-08T22:48:18;21.20;98.50
31725;DHT22;18306;40.960;14.836;2023-10-08T22:51:06;21.30;98.40
31725;DHT22;18306;40.960;14.836;2023-10-08T22:53:55;21.30;98.30
31725;DHT22;18306;40.960;14.836;2023-10-08T22:56:24;21.20;98.50
31725;DHT22;18306;40.960;14.836;2023-10-08T22:58:51;21.20;98.50
31725;DHT22;18306;40.960;14.836;2023-10-08T23:01:20;21.20;98.40
31725;DHT22;18306;40.960;14.836;2023-10-08T23:03:49;21.20;98.10
31725;DHT22;18306;40.960;14.836;2023-10-08T23:06:20;21.00;98.30
31725;DHT22;18306;40.960;14.836;2023-10-08T23:08:47;21.00;98.20
31725;DHT22;18306;40.960;14.836;2023-10-08T23:11:15;21.00;98.30
31725;DHT22;18306;40.960;14.836;2023-10-08T23:13:43;21.00;98.20
31725;DHT22;18306;40.960;14.836;2023-10-08T23:16:11;21.10;98.30
31725;DHT22;18306;40.960;14.836;2023-10-08T23:18:41;21.10;98.30
31725;DHT22;18306;40.960;14.836;2023-10-08T23:21:09;21.00;98.00
31725;DHT22;18306;40.960;14.836;2023-10-08T23:23:38;20.90;97.90
31725;DHT22;18306;40.960;14.836;2023-10-08T23:26:09;20.90;98.20
31725;DHT22;18306;40.960;14.836;2023-10-08T23:28:38;20.80;98.40
31725;DHT22;18306;40.960;14.836;2023-10-08T23:31:06;20.80;98.50
31725;DHT22;18306;40.960;14.836;2023-10-08T23:33:39;20.70;98.40
31725;DHT22;18306;40.960;14.836;2023-10-08T23:36:11;20.70;98.20
31725;DHT22;18306;40.960;14.836;2023-10-08T23:38:43;20.60;98.50
31725;DHT22;18306;40.960;14.836;2023-10-08T23:41:13;20.60;98.50
31725;DHT22;18306;40.960;14.836;2023-10-08T23:43:48;20.60;98.80
31725;DHT22;18306;40.960;14.836;2023-10-08T23:46:22;20.60;98.90
31725;DHT22;18306;40.960;14.836;2023-10-08T23:49:02;20.50;98.90
31725;DHT22;18306;40.960;14.836;2023-10-08T23:51:35;20.60;98.90
31725;DHT22;18306;40.960;14.836;2023-10-08T23:54:08;20.50;98.80
31725;DHT22;18306;40.960;14.836;2023-10-08T23:56:51;20.50;98.70
31725;DHT22;18306;40.960;14.836;2023-10-08T23:59:28;20.40;98.70
